Time;durP1;ratioP1;P1;durP2;ratioP2;P2;SDS_P1;SDS_P2;PMS_P1;PMS_P2;Temp;Humidity;BMP_temperature;BMP_pressure;BME280_temperature;BME280_humidity;BME280_pressure;Samples;Min_cycle;Max_cycle;Signal;HPM_P1;HPM_P2
2023/08/28 00:02:20;;;;;;;3.97;0.90;;;15.80;99.90;;;;;;4956209;29;21130;-74
2023/08/28 00:04:45;;;;;;;1.73;0.70;;;15.80;99.90;;;;;;4956399;29;20547;-75
2023/08/28 00:07:12;;;;;;;1.60;0.80;;;15.70;99.90;;;;;;4957395;28;20215;-74
2023/08/28 00:09:39;;;;;;;3.23;1.07;;;15.80;99.90;;;;;;4956626;28;20294;-75
2023/08/28 00:12:05;;;;;;;4.63;0.80;;;15.70;99.90;;;;;;4960467;28;20635;-75
2023/08/28 00:14:31;;;;;;;2.00;0.87;;;15.70;99.90;;;;;;4958408;29;20715;-74
2023/08/28 00:16:57;;;;;;;1.73;0.90;;;15.70;99.90;;;;;;4956694;29;20583;-74
2023/08/28 00:19:23;;;;;;;2.57;1.10;;;15.70;99.90;;;;;;4955574;28;20651;-74
2023/08/28 00:21:48;;;;;;;1.87;0.90;;;15.70;99.90;;;;;;4957982;28;20960;-74
2023/08/28 00:24:14;;;;;;;3.27;1.50;;;15.70;99.90;;;;;;4958550;28;20636;-74
2023/08/28 00:26:40;;;;;;;2.57;1.00;;;15.70;99.90;;;;;;4956726;29;20176;-74
2023/08/28 00:29:06;;;;;;;2.40;0.97;;;15.70;99.90;;;;;;4957757;28;20235;-74
2023/08/28 00:31:31;;;;;;;2.93;1.20;;;15.70;99.90;;;;;;4956761;29;20215;-74
2023/08/28 00:33:57;;;;;;;1.60;1.00;;;15.70;99.90;;;;;;4958016;29;20180;-74
2023/08/28 00:36:23;;;;;;;3.10;0.87;;;15.60;99.90;;;;;;4941284;29;20168;-74
2023/08/28 00:38:48;;;;;;;2.70;1.00;;;15.60;99.90;;;;;;4957790;28;20208;-74
2023/08/28 00:41:14;;;;;;;4.50;1.00;;;15.60;99.90;;;;;;4957267;28;20187;-74
2023/08/28 00:43:40;;;;;;;1.70;1.10;;;15.60;99.90;;;;;;4956074;28;20195;-74
2023/08/28 00:46:06;;;;;;;1.90;0.90;;;15.60;99.90;;;;;;4941158;29;20181;-75
2023/08/28 00:48:32;;;;;;;1.70;0.80;;;15.60;99.90;;;;;;4941122;29;20583;-75
2023/08/28 00:51:00;;;;;;;2.55;1.00;;;15.60;99.90;;;;;;4959094;28;20962;-74
2023/08/28 00:53:26;;;;;;;1.60;1.00;;;15.60;99.90;;;;;;4939793;29;20265;-74
2023/08/28 00:55:53;;;;;;;2.23;0.90;;;15.60;99.90;;;;;;4955304;28;20677;-74
2023/08/28 00:58:20;;;;;;;2.10;1.10;;;15.60;99.90;;;;;;4955680;28;20179;-74
2023/08/28 01:00:46;;;;;;;4.30;0.93;;;15.50;99.90;;;;;;4955390;29;20608;-74
2023/08/28 01:03:12;;;;;;;1.57;0.80;;;15.50;99.90;;;;;;4938593;29;20576;-74
2023/08/28 01:06:11;;;;;;;1.80;1.30;;;15.50;99.90;;;;;;4954755;28;20203;-74
2023/08/28 01:08:42;;;;;;;1.70;0.90;;;15.50;99.90;;;;;;4997872;23;20238;-77
2023/08/28 01:11:25;;;;;;;2.73;0.93;;;15.50;99.90;;;;;;4973186;28;20646;-75
2023/08/28 01:14:00;;;;;;;2.20;1.20;;;15.50;99.90;;;;;;4975652;28;20633;-75
2023/08/28 01:16:28;;;;;;;1.80;0.90;;;15.40;99.90;;;;;;4971635;28;20583;-77
2023/08/28 01:18:55;;;;;;;2.03;1.00;;;15.40;99.90;;;;;;4987058;28;20633;-76
2023/08/28 01:21:21;;;;;;;2.00;1.00;;;15.40;99.90;;;;;;4999350;28;20603;-75
2023/08/28 01:24:15;;;;;;;3.07;1.03;;;15.40;99.90;;;;;;4987834;28;21039;-75
2023/08/28 01:26:41;;;;;;;1.50;0.80;;;15.40;99.90;;;;;;4977781;28;21213;-74
2023/08/28 01:29:07;;;;;;;1.80;1.13;;;15.40;99.90;;;;;;4991933;28;20622;-75
2023/08/28 01:31:32;;;;;;;2.13;0.90;;;15.40;99.90;;;;;;4981561;28;20626;-75
2023/08/28 01:33:58;;;;;;;2.13;0.90;;;15.40;99.90;;;;;;4976570;28;20171;-75
2023/08/28 01:36:36;;;;;;;2.27;1.07;;;15.40;99.90;;;;;;4992702;28;20155;-75
2023/08/28 01:39:08;;;;;;;1.80;1.00;;;15.40;99.90;;;;;;4967521;28;20203;-74
2023/08/28 01:41:35;;;;;;;2.07;1.20;;;15.40;99.90;;;;;;4997100;28;20574;-74
2023/08/28 01:44:04;;;;;;;2.93;1.10;;;15.40;99.90;;;;;;4973823;28;20583;-75
2023/08/28 01:46:33;;;;;;;1.70;1.00;;;15.40;99.90;;;;;;4991844;28;21092;-75
2023/08/28 01:48:59;;;;;;;2.00;1.20;;;15.40;99.90;;;;;;4995739;28;20694;-76
2023/08/28 01:51:25;;;;;;;1.67;1.10;;;15.40;99.90;;;;;;5002472;28;20762;-76
2023/08/28 01:53:52;;;;;;;2.30;1.20;;;15.50;99.90;;;;;;5002535;28;20593;-76
2023/08/28 01:56:20;;;;;;;1.80;1.03;;;15.50;99.90;;;;;;4988361;28;20171;-76
2023/08/28 01:58:54;;;;;;;2.60;1.40;;;15.50;99.90;;;;;;4999843;28;20664;-76
2023/08/28 02:01:22;;;;;;;3.40;1.40;;;15.50;99.90;;;;;;4986530;28;20590;-76
2023/08/28 02:03:49;;;;;;;2.57;1.50;;;15.50;99.90;;;;;;4954818;28;20580;-74
2023/08/28 02:06:15;;;;;;;2.77;1.40;;;15.50;99.90;;;;;;4987506;28;20591;-75
2023/08/28 02:08:41;;;;;;;1.90;1.30;;;15.50;99.90;;;;;;4985947;28;20637;-75
2023/08/28 02:11:07;;;;;;;2.30;1.50;;;15.40;99.90;;;;;;4993109;28;20685;-75
2023/08/28 02:13:33;;;;;;;1.70;1.20;;;15.50;99.90;;;;;;4986319;28;20587;-74
2023/08/28 02:16:00;;;;;;;2.20;1.70;;;15.40;99.90;;;;;;4987916;28;20689;-75
2023/08/28 02:18:27;;;;;;;3.83;1.87;;;15.40;99.90;;;;;;4981695;28;20226;-75
2023/08/28 02:20:53;;;;;;;4.30;1.37;;;15.40;99.90;;;;;;4994193;28;20647;-74
2023/08/28 02:23:19;;;;;;;2.10;1.20;;;15.40;99.90;;;;;;4989856;28;20587;-74
2023/08/28 02:25:47;;;;;;;2.53;1.33;;;15.40;99.90;;;;;;4988565;28;20606;-75
2023/08/28 02:28:13;;;;;;;2.73;1.33;;;15.40;99.90;;;;;;5001030;28;20748;-76
2023/08/28 02:30:39;;;;;;;3.43;1.70;;;15.40;99.90;;;;;;4973581;28;20626;-76
2023/08/28 02:33:05;;;;;;;1.87;1.23;;;15.30;99.90;;;;;;5002235;28;20617;-76
2023/08/28 02:35:31;;;;;;;2.03;1.40;;;15.30;99.90;;;;;;5002261;28;20586;-76
2023/08/28 02:37:57;;;;;;;3.03;1.40;;;15.30;99.90;;;;;;5001955;28;20606;-76
2023/08/28 02:40:24;;;;;;;2.97;1.97;;;15.30;99.90;;;;;;5001704;28;20678;-76
2023/08/28 02:42:50;;;;;;;3.73;1.80;;;15.20;99.90;;;;;;4999906;28;20606;-76
2023/08/28 02:45:16;;;;;;;1.70;1.30;;;15.20;99.90;;;;;;4992671;28;20598;-76
2023/08/28 02:47:41;;;;;;;1.77;1.30;;;15.20;99.90;;;;;;5001132;28;20606;-76
2023/08/28 02:50:07;;;;;;;2.33;1.43;;;15.20;99.90;;;;;;5003755;28;20241;-76
2023/08/28 02:52:33;;;;;;;2.40;1.73;;;15.20;99.90;;;;;;5000644;28;20214;-77
2023/08/28 02:54:59;;;;;;;1.90;1.40;;;15.20;99.90;;;;;;4978396;28;20587;-76
2023/08/28 02:57:24;;;;;;;3.47;1.67;;;15.20;99.90;;;;;;4998629;28;20195;-76
2023/08/28 02:59:50;;;;;;;2.73;1.60;;;15.20;99.90;;;;;;4989034;28;20198;-75
2023/08/28 03:02:16;;;;;;;1.70;1.13;;;15.20;99.90;;;;;;4996084;28;20266;-76
2023/08/28 03:04:42;;;;;;;3.00;1.20;;;15.20;99.90;;;;;;4992914;28;20282;-75
2023/08/28 03:07:08;;;;;;;2.37;1.70;;;15.20;99.90;;;;;;4959621;28;20602;-77
2023/08/28 03:09:34;;;;;;;2.67;1.30;;;15.20;99.90;;;;;;5009752;28;20599;-77
2023/08/28 03:12:00;;;;;;;2.17;1.07;;;15.20;99.90;;;;;;4993550;28;20659;-77
2023/08/28 03:14:27;;;;;;;2.67;0.93;;;15.20;99.90;;;;;;4971313;28;20199;-77
2023/08/28 03:16:52;;;;;;;1.83;1.10;;;15.20;99.90;;;;;;5009044;28;20597;-77
2023/08/28 03:19:18;;;;;;;3.13;1.80;;;15.20;99.90;;;;;;4994501;28;20587;-77
2023/08/28 03:21:44;;;;;;;4.30;1.47;;;15.20;99.90;;;;;;5001056;28;20239;-78
2023/08/28 03:24:10;;;;;;;3.00;1.40;;;15.20;99.90;;;;;;5004711;28;20244;-78
2023/08/28 03:26:35;;;;;;;4.80;1.20;;;15.20;99.90;;;;;;5003379;28;20587;-78
2023/08/28 03:29:01;;;;;;;1.60;1.00;;;15.10;99.90;;;;;;5003585;28;20198;-78
2023/08/28 03:31:27;;;;;;;2.20;1.17;;;15.20;99.90;;;;;;5000133;28;20203;-77
2023/08/28 03:33:53;;;;;;;2.03;1.20;;;15.20;99.90;;;;;;4984310;28;20183;-76
2023/08/28 03:36:19;;;;;;;1.60;1.00;;;15.20;99.90;;;;;;4991920;28;20617;-77
2023/08/28 03:38:45;;;;;;;1.87;1.10;;;15.20;99.90;;;;;;4995247;28;20199;-77
2023/08/28 03:41:11;;;;;;;1.73;1.13;;;15.20;99.90;;;;;;4989039;28;20706;-78
2023/08/28 03:43:37;;;;;;;1.80;1.40;;;15.20;99.90;;;;;;5009220;28;20586;-77
2023/08/28 03:46:03;;;;;;;1.90;1.10;;;15.20;99.90;;;;;;5000160;28;20662;-77
2023/08/28 03:48:29;;;;;;;2.07;1.20;;;15.20;99.90;;;;;;5000930;28;20207;-77
2023/08/28 03:50:55;;;;;;;2.00;1.10;;;15.20;99.90;;;;;;5000951;28;20668;-78
2023/08/28 03:53:20;;;;;;;3.20;1.47;;;15.20;99.90;;;;;;5007564;28;21170;-77
2023/08/28 03:55:48;;;;;;;2.07;1.10;;;15.20;99.90;;;;;;4995629;28;20175;-78
2023/08/28 03:58:15;;;;;;;2.93;1.20;;;15.10;99.90;;;;;;4990748;28;20638;-78
2023/08/28 04:00:41;;;;;;;1.83;1.30;;;15.10;99.90;;;;;;4998503;28;20630;-78
2023/08/28 04:03:06;;;;;;;3.23;1.73;;;15.10;99.90;;;;;;5006221;28;20965;-78
2023/08/28 04:05:37;;;;;;;4.37;1.73;;;15.00;99.90;;;;;;5002222;28;20191;-77
2023/08/28 04:08:04;;;;;;;3.27;1.20;;;15.00;99.90;;;;;;5005085;28;20265;-77
2023/08/28 04:10:29;;;;;;;4.60;1.80;;;15.00;99.90;;;;;;5000630;28;20582;-78
2023/08/28 04:12:55;;;;;;;1.73;1.20;;;14.90;99.90;;;;;;5006516;28;20665;-78
2023/08/28 04:15:22;;;;;;;3.25;2.08;;;14.90;99.90;;;;;;4969559;28;20183;-77
2023/08/28 04:17:48;;;;;;;2.73;1.73;;;14.90;99.90;;;;;;4979262;28;20567;-77
2023/08/28 04:20:15;;;;;;;2.23;1.77;;;14.90;99.90;;;;;;4989924;28;20220;-77
2023/08/28 04:22:44;;;;;;;2.08;1.70;;;14.90;99.90;;;;;;4995895;28;20183;-77
2023/08/28 04:25:13;;;;;;;2.78;2.17;;;14.90;99.90;;;;;;5012814;28;20178;-77
2023/08/28 04:27:40;;;;;;;2.63;1.60;;;14.90;99.90;;;;;;5014287;28;20293;-77
2023/08/28 04:30:07;;;;;;;1.90;1.37;;;14.90;99.90;;;;;;5011319;28;20589;-77
2023/08/28 04:32:33;;;;;;;2.15;1.60;;;14.90;99.90;;;;;;5011314;28;20625;-77
2023/08/28 04:35:00;;;;;;;1.77;1.35;;;14.90;99.90;;;;;;5009612;28;20199;-77
2023/08/28 04:37:27;;;;;;;4.77;1.90;;;14.90;99.90;;;;;;4989737;28;20203;-77
2023/08/28 04:39:53;;;;;;;2.40;1.60;;;14.90;99.90;;;;;;5002606;28;20590;-77
2023/08/28 04:42:19;;;;;;;2.60;1.40;;;14.90;99.90;;;;;;4991671;28;20197;-77
2023/08/28 04:44:45;;;;;;;3.13;1.40;;;15.00;99.90;;;;;;5005352;28;20194;-77
2023/08/28 04:47:12;;;;;;;2.90;1.50;;;15.00;99.90;;;;;;5009565;28;20601;-77
2023/08/28 04:49:38;;;;;;;3.40;1.37;;;15.10;99.90;;;;;;4997014;28;20998;-77
2023/08/28 04:52:04;;;;;;;3.20;2.03;;;15.20;99.90;;;;;;4989666;28;20721;-77
2023/08/28 04:54:30;;;;;;;2.30;1.73;;;15.30;99.90;;;;;;5010928;28;20648;-77
2023/08/28 04:56:57;;;;;;;2.13;1.40;;;15.40;99.90;;;;;;4976024;28;20584;-77
2023/08/28 04:59:23;;;;;;;2.87;1.27;;;15.50;99.90;;;;;;5007776;28;20186;-77
2023/08/28 05:01:50;;;;;;;2.17;1.60;;;15.60;99.90;;;;;;4991669;28;20590;-77
2023/08/28 05:04:15;;;;;;;2.10;1.20;;;15.60;99.90;;;;;;5014109;28;20594;-77
2023/08/28 05:06:41;;;;;;;2.93;1.70;;;15.70;99.90;;;;;;4994484;28;20176;-77
2023/08/28 05:09:07;;;;;;;2.50;1.53;;;15.70;99.90;;;;;;5002554;28;20232;-76
2023/08/28 05:11:32;;;;;;;2.70;1.87;;;15.80;99.90;;;;;;5000203;28;20213;-77
2023/08/28 05:13:58;;;;;;;2.00;1.43;;;15.90;99.90;;;;;;4988678;28;20175;-77
2023/08/28 05:16:24;;;;;;;2.13;1.30;;;15.90;99.90;;;;;;5000749;28;20648;-77
2023/08/28 05:18:49;;;;;;;3.97;1.70;;;16.00;99.90;;;;;;4989410;28;20196;-77
2023/08/28 05:21:15;;;;;;;2.67;1.40;;;16.00;99.90;;;;;;4980885;28;20273;-76
2023/08/28 05:23:41;;;;;;;2.73;1.83;;;16.00;99.90;;;;;;5001479;28;20677;-77
2023/08/28 05:26:07;;;;;;;2.47;1.30;;;16.00;99.90;;;;;;4999698;28;20681;-76
2023/08/28 05:28:35;;;;;;;1.90;1.40;;;16.00;99.90;;;;;;5001640;28;20203;-77
2023/08/28 05:31:05;;;;;;;3.07;2.13;;;16.10;99.90;;;;;;5002347;28;20215;-77
2023/08/28 05:33:32;;;;;;;3.90;1.93;;;16.10;99.90;;;;;;4993222;28;20582;-76
2023/08/28 05:35:58;;;;;;;2.57;1.90;;;16.20;99.90;;;;;;4987988;28;20587;-76
2023/08/28 05:38:23;;;;;;;9.83;3.37;;;16.30;99.90;;;;;;4970505;28;21191;-77
2023/08/28 05:40:49;;;;;;;4.10;2.00;;;16.30;99.90;;;;;;4980097;28;20606;-76
2023/08/28 05:43:15;;;;;;;2.93;2.20;;;16.50;99.90;;;;;;5000535;28;20207;-76
2023/08/28 05:45:41;;;;;;;4.33;1.87;;;16.60;99.90;;;;;;5002436;28;21193;-76
2023/08/28 05:48:07;;;;;;;2.20;1.93;;;16.70;99.90;;;;;;4992920;28;20242;-77
2023/08/28 05:50:33;;;;;;;2.40;2.20;;;16.80;99.90;;;;;;4985764;28;20639;-76
2023/08/28 05:53:00;;;;;;;2.93;1.90;;;16.80;99.90;;;;;;4993629;28;20640;-76
2023/08/28 05:55:27;;;;;;;4.33;2.60;;;16.70;99.90;;;;;;4994339;28;20586;-76
2023/08/28 05:57:53;;;;;;;3.90;1.90;;;16.70;99.90;;;;;;4976064;28;20610;-75
2023/08/28 06:00:19;;;;;;;2.73;1.93;;;16.70;99.90;;;;;;4997762;28;20593;-76
2023/08/28 06:02:45;;;;;;;3.10;2.13;;;16.70;99.90;;;;;;4997758;28;20186;-76
2023/08/28 06:05:10;;;;;;;3.13;2.03;;;16.60;99.90;;;;;;4993885;28;20587;-74
2023/08/28 06:07:36;;;;;;;3.07;1.50;;;16.60;99.90;;;;;;4988602;28;20227;-75
2023/08/28 06:10:04;;;;;;;3.30;2.00;;;16.70;99.90;;;;;;4987678;28;20615;-74
2023/08/28 06:12:29;;;;;;;3.20;1.80;;;16.80;99.90;;;;;;4991117;28;20681;-75
2023/08/28 06:14:55;;;;;;;1.87;1.30;;;16.90;99.90;;;;;;4992490;28;20582;-76
2023/08/28 06:17:23;;;;;;;2.33;1.30;;;16.90;99.90;;;;;;4984463;28;20203;-74
2023/08/28 06:19:49;;;;;;;2.90;1.87;;;17.00;99.90;;;;;;4991379;28;20602;-75
2023/08/28 06:22:15;;;;;;;2.30;1.53;;;17.10;99.90;;;;;;4991547;28;20647;-75
2023/08/28 06:24:42;;;;;;;3.60;1.63;;;17.20;99.90;;;;;;4993805;28;20598;-76
2023/08/28 06:27:08;;;;;;;2.60;1.80;;;17.40;99.90;;;;;;4990016;28;20197;-76
2023/08/28 06:29:33;;;;;;;2.90;2.00;;;17.50;99.90;;;;;;5003942;28;20672;-76
2023/08/28 06:31:59;;;;;;;3.57;2.00;;;17.70;99.90;;;;;;4992842;28;21269;-76
2023/08/28 06:34:26;;;;;;;3.57;1.83;;;17.90;99.90;;;;;;4992438;28;21170;-76
2023/08/28 06:36:52;;;;;;;5.17;2.10;;;18.40;99.90;;;;;;4958903;28;20575;-76
2023/08/28 06:39:18;;;;;;;3.50;1.30;;;18.90;99.90;;;;;;4990350;28;20651;-76
2023/08/28 06:41:45;;;;;;;3.07;1.57;;;19.30;99.90;;;;;;4973598;28;20238;-76
2023/08/28 06:44:11;;;;;;;2.33;1.20;;;19.90;99.90;;;;;;4972132;28;20616;-75
2023/08/28 06:46:37;;;;;;;2.50;1.47;;;20.50;99.90;;;;;;4987386;28;20686;-75
2023/08/28 06:49:04;;;;;;;2.37;1.57;;;21.10;99.90;;;;;;4986274;28;20211;-74
2023/08/28 06:51:30;;;;;;;3.23;1.30;;;21.60;99.90;;;;;;4976376;28;20693;-75
2023/08/28 06:53:56;;;;;;;5.00;1.20;;;22.10;99.90;;;;;;4993443;28;20570;-75
2023/08/28 06:56:22;;;;;;;3.00;1.27;;;22.50;99.90;;;;;;4993108;28;20266;-76
2023/08/28 06:58:48;;;;;;;3.43;1.60;;;22.90;99.90;;;;;;4992720;28;20703;-75
2023/08/28 07:01:13;;;;;;;2.07;1.30;;;23.30;99.90;;;;;;4999668;28;20603;-75
2023/08/28 07:03:39;;;;;;;3.37;1.20;;;23.70;99.90;;;;;;4973636;28;20179;-75
2023/08/28 07:06:04;;;;;;;3.83;1.33;;;24.00;99.90;;;;;;4990013;28;20621;-75
2023/08/28 07:08:30;;;;;;;2.13;1.33;;;24.30;99.90;;;;;;4992557;28;20222;-76
2023/08/28 07:10:56;;;;;;;4.00;1.37;;;24.50;99.90;;;;;;4982048;28;20715;-76
2023/08/28 07:13:21;;;;;;;3.50;1.20;;;24.70;99.90;;;;;;4993210;28;20179;-75
2023/08/28 07:15:47;;;;;;;3.10;1.20;;;25.00;99.90;;;;;;4981720;28;20214;-75
2023/08/28 07:18:13;;;;;;;3.00;1.10;;;25.30;99.90;;;;;;4983619;28;20681;-74
2023/08/28 07:20:39;;;;;;;3.70;1.20;;;25.60;99.90;;;;;;4985491;28;21139;-75
2023/08/28 07:23:05;;;;;;;4.47;0.90;;;25.90;99.90;;;;;;4985750;28;20179;-75
2023/08/28 07:25:31;;;;;;;3.30;1.30;;;26.20;99.90;;;;;;4974867;28;21040;-75
2023/08/28 07:27:57;;;;;;;4.20;1.20;;;26.40;99.90;;;;;;4997943;28;20201;-75
2023/08/28 07:30:22;;;;;;;4.50;1.43;;;26.70;99.90;;;;;;4976317;28;20916;-75
2023/08/28 07:32:48;;;;;;;3.07;1.40;;;27.00;99.90;;;;;;4992458;28;20633;-75
2023/08/28 07:35:14;;;;;;;4.93;1.77;;;27.40;99.90;;;;;;4994815;28;20183;-75
2023/08/28 07:37:40;;;;;;;2.83;1.10;;;27.80;99.90;;;;;;4999913;28;20227;-74
2023/08/28 07:40:06;;;;;;;5.10;1.40;;;28.50;99.90;;;;;;4997386;28;20582;-75
2023/08/28 07:42:33;;;;;;;2.90;1.20;;;29.10;99.90;;;;;;4999379;28;20598;-75
2023/08/28 07:44:59;;;;;;;2.70;1.30;;;29.70;99.90;;;;;;4991800;28;20965;-76
2023/08/28 07:47:26;;;;;;;4.30;1.10;;;30.30;99.90;;;;;;5001457;28;20652;-75
2023/08/28 07:49:51;;;;;;;3.13;1.10;;;30.90;99.90;;;;;;5002879;28;20627;-75
2023/08/28 07:52:17;;;;;;;4.43;1.10;;;31.50;99.90;;;;;;5005086;28;20639;-75
2023/08/28 07:57:09;;;;;;;2.87;1.13;;;32.40;99.90;;;;;;4912823;29;20199;-76
2023/08/28 07:59:35;;;;;;;2.33;1.23;;;32.70;99.90;;;;;;4918971;29;20943;-76
2023/08/28 08:02:02;;;;;;;3.40;1.33;;;32.80;99.90;;;;;;4895873;29;20653;-76
2023/08/28 08:04:27;;;;;;;5.43;1.60;;;32.90;99.90;;;;;;4901381;29;20604;-76
2023/08/28 08:06:53;;;;;;;1.83;1.20;;;33.00;99.90;;;;;;4918366;29;20624;-76
2023/08/28 08:09:19;;;;;;;3.57;1.50;;;33.10;99.90;;;;;;4917937;29;20190;-76
2023/08/28 08:11:44;;;;;;;3.07;1.37;;;33.10;99.50;;;;;;4912418;29;20631;-76
2023/08/28 08:14:10;;;;;;;7.07;1.40;;;33.10;98.60;;;;;;4917694;29;20179;-76
2023/08/28 08:16:36;;;;;;;2.13;1.20;;;33.10;97.70;;;;;;4918787;29;20224;-76
2023/08/28 08:19:02;;;;;;;2.67;1.50;;;33.10;96.70;;;;;;4919326;29;20219;-76
2023/08/28 08:21:28;;;;;;;3.20;1.57;;;33.10;96.10;;;;;;4912246;29;20191;-76
2023/08/28 08:23:55;;;;;;;2.27;1.20;;;33.00;95.20;;;;;;4907598;29;20587;-76
2023/08/28 08:26:21;;;;;;;4.67;1.40;;;32.80;94.70;;;;;;4907889;29;20627;-76
2023/08/28 08:28:47;;;;;;;2.00;1.30;;;32.70;94.00;;;;;;4925515;29;20661;-76
2023/08/28 08:31:13;;;;;;;3.93;1.20;;;32.50;93.60;;;;;;4913329;29;20733;-76
2023/08/28 08:33:38;;;;;;;2.20;1.10;;;32.20;92.90;;;;;;4911255;29;20216;-76
2023/08/28 08:36:05;;;;;;;1.70;1.10;;;31.80;92.30;;;;;;4929682;29;20228;-77
2023/08/28 08:38:31;;;;;;;2.73;1.50;;;31.40;91.80;;;;;;4903838;29;20179;-76
2023/08/28 08:40:58;;;;;;;1.87;1.00;;;31.00;91.70;;;;;;4921615;29;21189;-76
2023/08/28 08:43:25;;;;;;;2.17;1.10;;;30.60;91.60;;;;;;4935485;29;20249;-76
2023/08/28 08:45:58;;;;;;;1.80;1.10;;;30.30;92.10;;;;;;4909328;29;20637;-76
2023/08/28 08:48:25;;;;;;;3.20;1.27;;;30.10;92.10;;;;;;4917219;29;20631;-76
2023/08/28 08:51:01;;;;;;;3.93;1.10;;;29.90;92.90;;;;;;4924846;29;20684;-76
2023/08/28 08:53:50;;;;;;;4.33;1.10;;;29.90;92.90;;;;;;4921722;29;20987;-76
2023/08/28 08:56:21;;;;;;;2.77;1.20;;;29.70;92.40;;;;;;4918649;29;21084;-76
2023/08/28 08:58:47;;;;;;;2.50;1.00;;;29.30;92.00;;;;;;4908600;29;20594;-75
2023/08/28 09:01:14;;;;;;;2.53;1.00;;;29.00;92.20;;;;;;4908502;29;20650;-75
2023/08/28 09:03:40;;;;;;;1.80;1.00;;;28.60;92.20;;;;;;4923678;29;20594;-75
2023/08/28 09:06:07;;;;;;;3.00;1.10;;;28.20;92.30;;;;;;4903308;29;20646;-75
2023/08/28 09:08:37;;;;;;;2.13;0.80;;;27.90;92.80;;;;;;4900261;29;20591;-74
2023/08/28 09:11:08;;;;;;;3.27;1.00;;;27.70;93.20;;;;;;4906132;29;20626;-75
2023/08/28 09:13:35;;;;;;;2.30;0.80;;;27.60;93.40;;;;;;4920819;29;20597;-75
2023/08/28 09:16:00;;;;;;;3.10;0.80;;;27.30;93.50;;;;;;4906052;29;20646;-75
2023/08/28 09:18:26;;;;;;;2.70;1.17;;;27.20;93.60;;;;;;4917450;29;20586;-75
2023/08/28 09:21:06;;;;;;;2.50;0.77;;;27.00;93.80;;;;;;4927703;29;20675;-75
2023/08/28 09:23:32;;;;;;;3.33;1.40;;;26.80;93.50;;;;;;4907394;29;20249;-75
2023/08/28 09:25:59;;;;;;;3.17;1.00;;;26.70;94.40;;;;;;4904648;29;20623;-75
2023/08/28 09:28:26;;;;;;;5.40;1.40;;;26.50;94.30;;;;;;4911801;29;20595;-75
2023/08/28 09:30:52;;;;;;;2.30;0.90;;;26.30;94.20;;;;;;4927512;29;20701;-75
2023/08/28 09:33:18;;;;;;;1.70;0.80;;;26.10;94.50;;;;;;4905025;29;21144;-75
2023/08/28 09:35:44;;;;;;;1.90;0.80;;;26.00;94.80;;;;;;4931202;29;20763;-75
2023/08/28 09:38:10;;;;;;;1.80;0.80;;;25.90;95.20;;;;;;4907901;29;20650;-75
2023/08/28 09:40:39;;;;;;;1.50;0.80;;;25.70;95.40;;;;;;4914788;29;20630;-74
2023/08/28 09:43:15;;;;;;;2.47;0.80;;;25.70;95.60;;;;;;4910152;29;20586;-75
2023/08/28 09:45:43;;;;;;;4.00;1.30;;;25.70;96.10;;;;;;4914579;29;21211;-75
2023/08/28 09:48:10;;;;;;;4.20;0.90;;;25.70;96.40;;;;;;4900890;29;20617;-74
2023/08/28 09:50:39;;;;;;;3.13;1.20;;;25.70;96.70;;;;;;4906682;29;20601;-74
2023/08/28 09:53:13;;;;;;;4.83;1.20;;;25.80;96.80;;;;;;4896723;29;20665;-75
2023/08/28 09:55:45;;;;;;;2.10;1.00;;;25.80;96.60;;;;;;4905030;29;20661;-75
2023/08/28 09:58:11;;;;;;;2.60;1.47;;;25.80;97.10;;;;;;4909259;29;20649;-75
2023/08/28 10:00:41;;;;;;;10.33;2.90;;;25.80;96.90;;;;;;4924592;29;20591;-75
2023/08/28 10:03:09;;;;;;;3.43;2.20;;;25.80;97.00;;;;;;4914559;29;20701;-75
2023/08/28 10:05:42;;;;;;;3.13;1.67;;;25.80;96.90;;;;;;4916292;29;20649;-75
2023/08/28 10:08:14;;;;;;;2.43;1.10;;;25.70;96.40;;;;;;4924018;29;20597;-74
2023/08/28 10:10:44;;;;;;;2.37;1.20;;;25.70;96.80;;;;;;4913903;29;20650;-74
2023/08/28 10:13:19;;;;;;;1.80;1.20;;;25.60;97.00;;;;;;4915176;29;20629;-74
2023/08/28 10:16:06;;;;;;;4.97;1.50;;;25.60;97.60;;;;;;4907950;29;20728;-75
2023/08/28 10:18:39;;;;;;;2.00;1.33;;;25.50;96.60;;;;;;4914776;29;20608;-74
2023/08/28 10:21:06;;;;;;;2.00;0.97;;;25.50;97.30;;;;;;4914264;29;20601;-74
2023/08/28 10:23:33;;;;;;;2.00;1.00;;;25.60;97.80;;;;;;4914567;29;20594;-75
2023/08/28 10:26:01;;;;;;;3.53;1.10;;;25.70;97.80;;;;;;4914678;29;20721;-75
2023/08/28 10:28:28;;;;;;;2.27;1.00;;;25.80;97.80;;;;;;4915559;29;20601;-74
2023/08/28 10:30:57;;;;;;;1.90;0.87;;;25.90;98.10;;;;;;4912594;29;20733;-75
2023/08/28 10:33:23;;;;;;;1.93;0.80;;;26.10;98.30;;;;;;4927040;29;21128;-75
2023/08/28 10:35:51;;;;;;;2.43;0.77;;;26.20;98.30;;;;;;4937510;29;20620;-75
2023/08/28 10:38:20;;;;;;;1.90;0.80;;;26.30;97.40;;;;;;4919420;29;20589;-75
2023/08/28 10:40:52;;;;;;;1.53;0.60;;;26.30;97.10;;;;;;4915764;29;20586;-75
2023/08/28 10:43:19;;;;;;;2.90;0.70;;;26.20;96.80;;;;;;4900063;29;20598;-75
2023/08/28 10:45:47;;;;;;;1.90;0.80;;;26.20;97.40;;;;;;4910978;29;20619;-75
2023/08/28 10:48:14;;;;;;;1.70;0.80;;;26.40;98.50;;;;;;4895963;29;20591;-73
2023/08/28 10:50:41;;;;;;;2.67;0.70;;;26.70;99.00;;;;;;4904528;29;20656;-75
2023/08/28 10:53:06;;;;;;;1.60;0.70;;;27.00;98.30;;;;;;4913310;29;20582;-74
2023/08/28 10:55:34;;;;;;;2.23;0.70;;;27.20;97.60;;;;;;4901061;29;20206;-74
2023/08/28 10:58:03;;;;;;;1.93;0.70;;;27.20;96.90;;;;;;4911184;29;20678;-76
2023/08/28 11:00:29;;;;;;;1.60;0.67;;;27.30;96.70;;;;;;4929828;29;20594;-74
2023/08/28 11:03:14;;;;;;;1.50;0.60;;;27.40;96.80;;;;;;4929284;29;20602;-75
2023/08/28 11:05:42;;;;;;;1.90;0.70;;;27.60;96.60;;;;;;4909170;29;20625;-74
2023/08/28 11:08:11;;;;;;;4.63;0.77;;;27.80;96.70;;;;;;4918366;29;20620;-75
2023/08/28 11:10:38;;;;;;;1.30;0.50;;;27.80;95.90;;;;;;4917201;29;20688;-75
2023/08/28 11:13:11;;;;;;;1.73;0.60;;;27.80;95.00;;;;;;4933251;29;20636;-74
2023/08/28 11:15:41;;;;;;;1.30;0.50;;;27.80;93.70;;;;;;4918864;29;20957;-75
2023/08/28 11:18:26;;;;;;;1.63;0.50;;;27.90;93.60;;;;;;4918015;29;20684;-75
2023/08/28 11:20:54;;;;;;;1.43;0.40;;;27.90;93.60;;;;;;4916956;29;20597;-75
2023/08/28 11:23:25;;;;;;;1.70;0.60;;;27.90;93.80;;;;;;4932961;29;20604;-76
2023/08/28 11:25:52;;;;;;;1.20;0.50;;;28.00;92.80;;;;;;4916837;29;20663;-75
2023/08/28 11:28:32;;;;;;;1.47;0.60;;;27.90;92.90;;;;;;4911852;29;20635;-75
2023/08/28 11:31:03;;;;;;;1.50;0.60;;;27.90;92.10;;;;;;4902915;29;20704;-75
2023/08/28 11:33:44;;;;;;;4.93;0.70;;;28.00;93.00;;;;;;4900781;29;20598;-75
2023/08/28 11:36:14;;;;;;;1.60;0.70;;;28.10;92.40;;;;;;4906776;29;20635;-76
2023/08/28 11:38:41;;;;;;;2.33;0.70;;;28.30;92.90;;;;;;4897443;29;20589;-75
2023/08/28 11:41:10;;;;;;;1.57;0.60;;;28.30;92.90;;;;;;4903749;29;20585;-75
2023/08/28 11:43:37;;;;;;;1.50;0.50;;;28.40;92.60;;;;;;4932117;29;20602;-76
2023/08/28 11:46:03;;;;;;;1.40;0.50;;;28.40;92.30;;;;;;4932398;29;20617;-76
2023/08/28 11:48:36;;;;;;;1.30;0.60;;;28.30;91.50;;;;;;4916318;29;20645;-76
2023/08/28 11:51:08;;;;;;;1.53;0.60;;;28.10;90.00;;;;;;4912169;29;21211;-76
2023/08/28 11:53:37;;;;;;;1.40;0.60;;;28.00;90.20;;;;;;4905665;29;20606;-76
2023/08/28 11:56:04;;;;;;;2.10;0.60;;;27.80;90.30;;;;;;4898573;29;20642;-76
2023/08/28 11:58:31;;;;;;;2.40;0.70;;;27.70;90.50;;;;;;4897232;29;20606;-75
2023/08/28 12:00:59;;;;;;;2.77;0.60;;;27.60;91.10;;;;;;4897563;29;20625;-76
2023/08/28 12:03:24;;;;;;;1.40;0.50;;;27.50;91.00;;;;;;4916231;29;20613;-77
2023/08/28 12:05:59;;;;;;;1.70;0.60;;;27.40;90.90;;;;;;4906177;29;21320;-75
2023/08/28 12:08:25;;;;;;;2.20;0.60;;;27.30;90.90;;;;;;4897314;29;20205;-75
2023/08/28 12:10:51;;;;;;;2.17;0.60;;;27.30;91.10;;;;;;4898493;29;20602;-75
2023/08/28 12:13:20;;;;;;;1.30;0.50;;;27.30;90.80;;;;;;4904080;29;20503;-75
2023/08/28 12:15:45;;;;;;;2.10;0.60;;;27.20;90.50;;;;;;4897536;29;20628;-75
2023/08/28 12:18:11;;;;;;;1.37;0.60;;;27.20;91.20;;;;;;4904401;29;20599;-77
2023/08/28 12:20:37;;;;;;;2.50;0.60;;;27.20;90.80;;;;;;4897990;29;20271;-75
2023/08/28 12:23:03;;;;;;;1.93;0.60;;;27.20;90.40;;;;;;4896913;29;20542;-75
2023/08/28 12:25:40;;;;;;;1.50;0.60;;;27.20;90.70;;;;;;4896384;29;20627;-75
2023/08/28 12:28:13;;;;;;;2.33;0.60;;;27.20;90.50;;;;;;4915261;29;20598;-75
2023/08/28 12:30:40;;;;;;;3.40;0.60;;;27.20;90.70;;;;;;4897972;29;20613;-75
2023/08/28 12:33:07;;;;;;;2.67;0.50;;;27.20;90.70;;;;;;4912353;29;20689;-76
2023/08/28 12:35:40;;;;;;;2.33;0.60;;;27.20;90.60;;;;;;4898109;29;21234;-75
2023/08/28 12:38:06;;;;;;;1.40;0.60;;;27.10;90.50;;;;;;4912261;29;20618;-75
2023/08/28 12:40:37;;;;;;;1.60;0.60;;;27.20;90.60;;;;;;4896863;29;20656;-76
2023/08/28 12:43:15;;;;;;;1.40;0.60;;;27.20;90.60;;;;;;4897880;29;20650;-76
2023/08/28 12:45:42;;;;;;;1.57;0.50;;;27.30;90.30;;;;;;4921321;29;20629;-76
2023/08/28 12:48:07;;;;;;;1.60;0.60;;;27.30;90.10;;;;;;4916687;29;20987;-76
2023/08/28 12:50:35;;;;;;;1.57;0.50;;;27.30;88.80;;;;;;4912742;29;20626;-75
2023/08/28 12:53:01;;;;;;;2.20;0.50;;;27.20;88.90;;;;;;4912947;29;20230;-76